Time;durP1;ratioP1;P1;durP2;ratioP2;P2;SDS_P1;SDS_P2;PMS_P1;PMS_P2;Temp;Humidity;BMP_temperature;BMP_pressure;BME280_temperature;BME280_humidity;BME280_pressure;Samples;Min_cycle;Max_cycle;Signal;HPM_P1;HPM_P2
2022/07/25 00:02:06;;;;;;;0.70;0.20;;;25.90;99.90;;;;;;5051246;28;20446;-73
2022/07/25 00:04:36;;;;;;;0.70;0.10;;;26.00;99.90;;;;;;5052561;28;20488;-73
2022/07/25 00:07:05;;;;;;;0.70;0.10;;;25.90;99.90;;;;;;5055912;28;20481;-75
2022/07/25 00:09:33;;;;;;;0.70;0.30;;;25.80;99.90;;;;;;5055331;28;20832;-75
2022/07/25 00:12:01;;;;;;;0.70;0.10;;;25.80;99.90;;;;;;5055886;28;20438;-74
2022/07/25 00:14:30;;;;;;;2.20;1.90;;;25.70;99.90;;;;;;5055903;28;20453;-74
2022/07/25 00:16:58;;;;;;;0.70;0.10;;;25.70;99.90;;;;;;5055432;28;20836;-74
2022/07/25 00:19:26;;;;;;;0.70;0.20;;;25.70;99.90;;;;;;5055490;28;20466;-74
2022/07/25 00:21:55;;;;;;;0.70;0.20;;;25.70;99.90;;;;;;5055496;28;20545;-74
2022/07/25 00:24:23;;;;;;;1.13;0.93;;;25.70;99.90;;;;;;5055269;28;20967;-74
2022/07/25 00:26:51;;;;;;;0.70;0.40;;;25.60;99.90;;;;;;5055509;28;20453;-74
2022/07/25 00:29:19;;;;;;;0.70;0.30;;;25.60;99.90;;;;;;5055589;28;20482;-74
2022/07/25 00:31:47;;;;;;;0.70;0.20;;;25.60;99.90;;;;;;5055775;28;20442;-74
2022/07/25 00:34:15;;;;;;;0.70;0.20;;;25.60;99.90;;;;;;5055344;28;20442;-74
2022/07/25 00:36:43;;;;;;;0.70;0.30;;;25.60;99.90;;;;;;5055039;28;20952;-74
2022/07/25 00:39:12;;;;;;;0.70;0.17;;;25.60;99.90;;;;;;5055362;28;20466;-73
2022/07/25 00:41:40;;;;;;;0.70;0.10;;;;;;;;;;5055303;28;20460;-74
2022/07/25 00:44:08;;;;;;;0.70;0.10;;;25.60;99.90;;;;;;5055040;28;20929;-74
2022/07/25 00:46:38;;;;;;;0.70;0.20;;;25.60;99.90;;;;;;5055097;28;20533;-74
2022/07/25 00:49:06;;;;;;;0.70;0.10;;;25.60;99.90;;;;;;5054970;28;20492;-73
2022/07/25 00:51:34;;;;;;;0.70;0.10;;;25.50;99.90;;;;;;5055990;28;20460;-73
2022/07/25 00:54:02;;;;;;;0.70;0.20;;;25.50;99.90;;;;;;5056852;28;20449;-73
2022/07/25 00:56:32;;;;;;;0.70;0.10;;;25.50;99.90;;;;;;5057350;28;20541;-73
2022/07/25 00:59:00;;;;;;;1.00;0.40;;;25.50;99.90;;;;;;5054807;28;20633;-74
2022/07/25 01:01:28;;;;;;;0.70;0.10;;;25.50;99.90;;;;;;5054806;28;20948;-74
2022/07/25 01:03:56;;;;;;;0.70;0.10;;;25.50;99.90;;;;;;5054702;28;20941;-74
2022/07/25 01:06:26;;;;;;;3.13;3.03;;;25.40;99.90;;;;;;5055026;28;20496;-73
2022/07/25 01:08:54;;;;;;;3.17;2.73;;;25.40;99.90;;;;;;5054459;28;20482;-74
2022/07/25 01:11:23;;;;;;;0.70;0.20;;;25.30;99.90;;;;;;5054607;28;20447;-74
2022/07/25 01:13:52;;;;;;;0.70;0.10;;;25.30;99.90;;;;;;5054402;28;20449;-74
2022/07/25 01:16:20;;;;;;;0.70;0.10;;;25.30;99.90;;;;;;5054112;28;20860;-74
2022/07/25 01:18:48;;;;;;;0.70;0.10;;;25.30;99.90;;;;;;5054656;28;20467;-74
2022/07/25 01:21:17;;;;;;;1.03;0.60;;;25.20;99.90;;;;;;5055059;28;20449;-74
2022/07/25 01:23:45;;;;;;;0.70;0.20;;;25.20;99.90;;;;;;5054875;28;20840;-74
2022/07/25 01:26:13;;;;;;;0.70;0.10;;;25.20;99.90;;;;;;5055111;28;20478;-74
2022/07/25 01:28:41;;;;;;;0.70;0.20;;;25.10;99.90;;;;;;5054718;28;20485;-74
2022/07/25 01:31:09;;;;;;;0.70;0.10;;;25.10;99.90;;;;;;5054792;28;20450;-74
2022/07/25 01:33:37;;;;;;;0.70;0.10;;;25.10;99.90;;;;;;5046639;28;20854;-73
2022/07/25 01:36:05;;;;;;;2.60;1.90;;;25.10;99.90;;;;;;5053967;28;20442;-74
2022/07/25 01:38:35;;;;;;;0.70;0.20;;;25.00;99.90;;;;;;5054118;28;20466;-74
2022/07/25 01:41:03;;;;;;;0.70;0.10;;;25.00;99.90;;;;;;5054029;28;20447;-73
2022/07/25 01:43:30;;;;;;;0.70;0.10;;;24.90;99.90;;;;;;5055505;28;20442;-73
2022/07/25 01:45:58;;;;;;;0.70;0.20;;;24.90;99.90;;;;;;5054451;28;20446;-74
2022/07/25 01:48:26;;;;;;;0.70;0.10;;;24.90;99.90;;;;;;5054893;28;20497;-73
2022/07/25 01:50:54;;;;;;;0.70;0.20;;;24.80;99.90;;;;;;5054119;28;20485;-74
2022/07/25 01:53:23;;;;;;;0.70;0.20;;;24.80;99.90;;;;;;5055493;28;20442;-74
2022/07/25 01:55:54;;;;;;;0.70;0.20;;;;;;;;;;5054657;28;20446;-74
2022/07/25 01:58:24;;;;;;;0.70;0.20;;;24.90;99.90;;;;;;5056009;28;20463;-73
2022/07/25 02:00:52;;;;;;;0.70;0.10;;;24.80;99.90;;;;;;5055336;28;20447;-73
2022/07/25 02:03:32;;;;;;;0.70;0.20;;;24.80;99.90;;;;;;5054997;28;20457;-73
2022/07/25 02:06:02;;;;;;;0.70;0.10;;;24.80;99.90;;;;;;5054674;28;20541;-74
2022/07/25 02:08:30;;;;;;;0.70;0.10;;;24.70;99.90;;;;;;5054214;28;20832;-74
2022/07/25 02:11:01;;;;;;;0.70;0.20;;;24.70;99.90;;;;;;5053893;28;20881;-74
2022/07/25 02:13:28;;;;;;;0.70;0.20;;;24.70;99.90;;;;;;5053215;28;20447;-74
2022/07/25 02:15:56;;;;;;;0.70;0.17;;;24.60;99.90;;;;;;5053253;28;20812;-74
2022/07/25 02:18:24;;;;;;;0.70;0.20;;;24.50;99.90;;;;;;5053219;28;20545;-74
2022/07/25 02:20:52;;;;;;;0.70;0.20;;;24.50;99.90;;;;;;5052883;28;20449;-74
2022/07/25 02:23:20;;;;;;;0.70;0.20;;;24.50;99.90;;;;;;5053263;28;20449;-74
2022/07/25 02:25:48;;;;;;;0.70;0.20;;;24.40;99.90;;;;;;5053177;28;20438;-75
2022/07/25 02:28:17;;;;;;;0.70;0.10;;;24.40;99.90;;;;;;5052086;28;20458;-74
2022/07/25 02:30:45;;;;;;;0.90;0.40;;;24.40;99.90;;;;;;5052985;28;20529;-74
2022/07/25 02:33:13;;;;;;;0.70;0.10;;;24.30;99.90;;;;;;5052949;28;20888;-74
2022/07/25 02:35:41;;;;;;;0.70;0.17;;;24.30;99.90;;;;;;5052437;28;20453;-74
2022/07/25 02:38:08;;;;;;;0.70;0.10;;;24.10;99.90;;;;;;5052641;28;20470;-74
2022/07/25 02:40:36;;;;;;;0.70;0.27;;;24.10;99.90;;;;;;5052549;28;20449;-74
2022/07/25 02:43:04;;;;;;;0.70;0.10;;;24.10;99.90;;;;;;5052682;28;20533;-73
2022/07/25 02:45:33;;;;;;;0.70;0.20;;;24.10;99.90;;;;;;5053029;28;20453;-73
2022/07/25 02:48:02;;;;;;;0.70;0.10;;;24.00;99.90;;;;;;5052000;28;20442;-73
2022/07/25 02:50:29;;;;;;;0.70;0.10;;;24.00;99.90;;;;;;5089075;22;20498;-73
2022/07/25 02:52:58;;;;;;;0.70;0.10;;;24.00;99.90;;;;;;5063062;28;20500;-73
2022/07/25 02:55:25;;;;;;;0.70;0.30;;;24.00;99.90;;;;;;5067755;28;20454;-73
2022/07/25 02:57:53;;;;;;;0.70;0.10;;;23.20;99.90;;;;;;5061444;28;20794;-74
2022/07/25 03:00:21;;;;;;;0.70;0.20;;;24.00;99.90;;;;;;5052959;28;20466;-73
2022/07/25 03:02:51;;;;;;;0.70;0.20;;;23.90;99.90;;;;;;5052734;28;20948;-74
2022/07/25 03:05:19;;;;;;;0.70;0.10;;;23.90;99.90;;;;;;5053015;28;20461;-73
2022/07/25 03:07:47;;;;;;;0.70;0.10;;;23.90;99.90;;;;;;5052228;28;20447;-74
2022/07/25 03:10:15;;;;;;;0.70;0.13;;;23.80;99.90;;;;;;5052267;28;20494;-74
2022/07/25 03:12:44;;;;;;;0.70;0.10;;;23.60;99.90;;;;;;5052233;28;20941;-74
2022/07/25 03:15:14;;;;;;;0.70;0.10;;;23.60;99.90;;;;;;5051988;28;20443;-74
2022/07/25 03:17:42;;;;;;;0.70;0.20;;;23.60;99.90;;;;;;5052217;28;20454;-73
2022/07/25 03:20:12;;;;;;;0.70;0.20;;;23.60;99.90;;;;;;5051910;28;20450;-74
2022/07/25 03:22:40;;;;;;;0.70;0.10;;;23.60;99.90;;;;;;5052464;28;20445;-74
2022/07/25 03:25:08;;;;;;;0.70;0.10;;;23.70;99.90;;;;;;5052673;28;20446;-74
2022/07/25 03:27:48;;;;;;;0.90;0.77;;;23.60;99.90;;;;;;5051642;28;20489;-73
2022/07/25 03:30:16;;;;;;;0.70;0.10;;;23.50;99.90;;;;;;5051757;28;21111;-74
2022/07/25 03:32:44;;;;;;;0.70;0.10;;;23.50;99.90;;;;;;5052147;28;20478;-74
2022/07/25 03:35:14;;;;;;;0.70;0.10;;;23.50;99.90;;;;;;5052016;28;20805;-74
2022/07/25 03:37:42;;;;;;;0.70;0.10;;;23.50;99.90;;;;;;5052005;28;20478;-73
2022/07/25 03:40:11;;;;;;;0.70;0.30;;;23.40;99.90;;;;;;5051461;28;20669;-73
2022/07/25 03:42:39;;;;;;;0.70;0.10;;;23.40;99.90;;;;;;5052324;28;20453;-74
2022/07/25 03:45:08;;;;;;;0.70;0.13;;;23.40;99.90;;;;;;5052051;28;20430;-75
2022/07/25 03:47:36;;;;;;;0.70;0.10;;;23.30;99.90;;;;;;5052256;28;20446;-74
2022/07/25 03:50:04;;;;;;;0.70;0.10;;;23.30;99.90;;;;;;5051898;28;21010;-74
2022/07/25 03:52:34;;;;;;;0.70;0.10;;;23.20;99.90;;;;;;5051879;28;20469;-74
2022/07/25 03:55:01;;;;;;;0.70;0.20;;;23.20;99.90;;;;;;5052160;28;20450;-74
2022/07/25 03:57:29;;;;;;;0.70;0.13;;;23.20;99.90;;;;;;5051893;28;20532;-73
2022/07/25 03:59:57;;;;;;;0.70;0.10;;;23.20;99.90;;;;;;5051819;28;20469;-74
2022/07/25 04:02:25;;;;;;;0.70;0.10;;;23.20;99.90;;;;;;5053635;28;20443;-74
2022/07/25 04:04:54;;;;;;;0.70;0.20;;;;;;;;;;5051927;28;20454;-73
2022/07/25 04:07:22;;;;;;;0.70;0.10;;;23.20;99.90;;;;;;5052268;28;20454;-73
2022/07/25 04:09:51;;;;;;;0.70;0.10;;;23.30;99.90;;;;;;5052168;28;21046;-73
2022/07/25 04:12:19;;;;;;;0.70;0.17;;;23.20;99.90;;;;;;5052388;28;20450;-73
2022/07/25 04:14:47;;;;;;;0.70;0.10;;;23.20;99.90;;;;;;5052139;28;20453;-74
2022/07/25 04:17:14;;;;;;;0.70;0.10;;;23.20;99.90;;;;;;5052165;28;20454;-75
2022/07/25 04:19:42;;;;;;;0.70;0.20;;;23.30;99.90;;;;;;5051710;28;20556;-75
2022/07/25 04:22:10;;;;;;;0.70;0.10;;;23.30;99.90;;;;;;5052204;28;20500;-74
2022/07/25 04:24:38;;;;;;;0.70;0.20;;;23.40;99.90;;;;;;5051942;28;20847;-74
2022/07/25 04:27:07;;;;;;;0.70;0.20;;;23.50;99.90;;;;;;5051938;28;20833;-74
2022/07/25 04:29:35;;;;;;;0.70;0.10;;;23.50;99.90;;;;;;5051829;28;20463;-74
2022/07/25 04:32:04;;;;;;;2.53;2.43;;;23.60;99.90;;;;;;5052072;28;20446;-74
2022/07/25 04:34:32;;;;;;;0.70;0.20;;;23.60;99.90;;;;;;5051744;28;20447;-75
2022/07/25 04:36:59;;;;;;;0.70;0.10;;;23.70;99.90;;;;;;5051798;28;20454;-74
2022/07/25 04:39:27;;;;;;;0.70;0.10;;;23.70;99.90;;;;;;5051623;28;21040;-74
2022/07/25 04:41:55;;;;;;;0.70;0.20;;;23.70;99.90;;;;;;5051656;28;20443;-74
2022/07/25 04:44:25;;;;;;;0.70;0.20;;;23.80;99.90;;;;;;5051763;28;20463;-75
2022/07/25 04:46:53;;;;;;;0.70;0.20;;;23.80;99.90;;;;;;5051251;28;21015;-75
2022/07/25 04:49:20;;;;;;;0.70;0.10;;;23.80;99.90;;;;;;5051669;28;20478;-74
2022/07/25 04:51:48;;;;;;;0.70;0.10;;;23.80;99.90;;;;;;5054636;28;20573;-74
2022/07/25 04:54:16;;;;;;;0.70;0.20;;;23.80;99.90;;;;;;5056101;28;20442;-74
2022/07/25 04:56:44;;;;;;;0.70;0.20;;;23.80;99.90;;;;;;5055809;28;20446;-74
2022/07/25 04:59:12;;;;;;;0.70;0.13;;;23.90;99.90;;;;;;5055654;28;20473;-74
2022/07/25 05:01:41;;;;;;;0.70;0.10;;;23.80;99.90;;;;;;5055214;28;20533;-74
2022/07/25 05:04:09;;;;;;;0.90;0.50;;;23.80;99.90;;;;;;5055892;28;20553;-73
2022/07/25 05:06:37;;;;;;;0.70;0.10;;;23.80;99.90;;;;;;5055195;28;20515;-75
2022/07/25 05:09:05;;;;;;;0.70;0.10;;;23.80;99.90;;;;;;5054883;28;20562;-74
2022/07/25 05:11:33;;;;;;;0.70;0.10;;;23.90;99.90;;;;;;5055244;28;20505;-74
2022/07/25 05:14:01;;;;;;;0.70;0.30;;;23.90;99.90;;;;;;5055080;28;20446;-75
2022/07/25 05:16:29;;;;;;;0.70;0.20;;;23.90;99.90;;;;;;5055023;28;20442;-74
2022/07/25 05:18:59;;;;;;;0.70;0.20;;;23.90;99.90;;;;;;5054737;28;20469;-74
2022/07/25 05:21:26;;;;;;;0.70;0.10;;;24.00;99.90;;;;;;5054932;28;20820;-74
2022/07/25 05:23:54;;;;;;;0.70;0.10;;;24.00;99.90;;;;;;5055465;28;20449;-74
2022/07/25 05:26:23;;;;;;;0.70;0.20;;;24.10;99.90;;;;;;5055752;28;20465;-75
2022/07/25 05:28:50;;;;;;;1.13;0.30;;;24.10;99.90;;;;;;5055857;28;20468;-75
2022/07/25 05:31:18;;;;;;;0.70;0.10;;;24.10;99.90;;;;;;5055612;28;20505;-75
2022/07/25 05:33:46;;;;;;;0.70;0.10;;;24.20;99.90;;;;;;5055440;28;20447;-75
2022/07/25 05:36:17;;;;;;;0.70;0.10;;;24.20;99.90;;;;;;5054595;28;20449;-75
2022/07/25 05:38:45;;;;;;;0.70;0.10;;;24.30;99.90;;;;;;5054983;28;20554;-75
2022/07/25 05:41:13;;;;;;;0.70;0.10;;;24.30;99.90;;;;;;5055795;28;20445;-75
2022/07/25 05:43:44;;;;;;;0.70;0.20;;;24.40;99.90;;;;;;5055266;28;20453;-74
2022/07/25 05:46:12;;;;;;;0.70;0.20;;;24.40;99.90;;;;;;5054973;28;20454;-74
2022/07/25 05:48:40;;;;;;;0.70;0.10;;;24.50;99.90;;;;;;5054590;28;20882;-74
2022/07/25 05:51:09;;;;;;;0.70;0.17;;;24.50;99.90;;;;;;5059766;28;20512;-74
2022/07/25 05:53:38;;;;;;;0.70;0.10;;;24.60;99.90;;;;;;5065146;28;20988;-74
2022/07/25 05:56:07;;;;;;;0.70;0.10;;;24.50;99.90;;;;;;5061566;28;20515;-74
2022/07/25 05:58:39;;;;;;;0.70;0.10;;;24.70;99.90;;;;;;5060761;28;20451;-74
2022/07/25 06:01:07;;;;;;;0.70;0.20;;;24.60;99.90;;;;;;5059976;28;20438;-74
2022/07/25 06:03:35;;;;;;;0.70;0.20;;;24.70;99.90;;;;;;5053975;28;20442;-74
2022/07/25 06:06:03;;;;;;;0.70;0.10;;;24.70;99.90;;;;;;5054274;28;20453;-74
2022/07/25 06:08:32;;;;;;;0.70;0.10;;;24.80;99.90;;;;;;5054243;28;20434;-74
2022/07/25 06:11:02;;;;;;;0.70;0.20;;;24.80;99.90;;;;;;5054146;28;20486;-74
2022/07/25 06:13:31;;;;;;;0.70;0.20;;;24.90;99.90;;;;;;5054602;28;20493;-75
2022/07/25 06:16:01;;;;;;;0.70;0.13;;;24.90;99.90;;;;;;5055264;28;20454;-75
2022/07/25 06:18:30;;;;;;;0.70;0.10;;;25.00;99.90;;;;;;5054771;28;20453;-74
2022/07/25 06:20:58;;;;;;;0.70;0.20;;;25.00;99.90;;;;;;5055625;28;20783;-74
2022/07/25 06:23:26;;;;;;;0.70;0.20;;;25.10;99.90;;;;;;5055064;28;20447;-74
2022/07/25 06:25:54;;;;;;;0.80;0.60;;;25.10;99.90;;;;;;5054818;28;21026;-74
2022/07/25 06:28:24;;;;;;;0.70;0.13;;;25.30;99.90;;;;;;5054411;28;20443;-75
2022/07/25 06:30:52;;;;;;;0.70;0.10;;;25.20;99.90;;;;;;5058270;28;20500;-74
2022/07/25 06:33:20;;;;;;;0.70;0.10;;;25.30;99.90;;;;;;5054499;28;20970;-75
2022/07/25 06:35:47;;;;;;;0.70;0.20;;;25.40;99.90;;;;;;5054282;28;20465;-73
2022/07/25 06:38:16;;;;;;;0.70;0.20;;;25.50;99.90;;;;;;5053973;28;20518;-74
2022/07/25 06:40:43;;;;;;;2.50;2.30;;;25.60;99.90;;;;;;5054055;28;21004;-75
2022/07/25 06:43:11;;;;;;;0.70;0.10;;;25.60;99.90;;;;;;5055541;28;20541;-74
2022/07/25 06:45:45;;;;;;;0.70;0.20;;;25.60;99.90;;;;;;5053877;28;20457;-75
2022/07/25 06:48:13;;;;;;;0.70;0.17;;;25.70;99.90;;;;;;5053711;28;20474;-74
2022/07/25 06:50:41;;;;;;;0.70;0.10;;;25.80;99.90;;;;;;5053505;28;20478;-75
2022/07/25 06:53:09;;;;;;;0.70;0.17;;;25.80;99.90;;;;;;5053852;28;20457;-74
2022/07/25 06:55:37;;;;;;;0.70;0.10;;;25.90;99.90;;;;;;5053073;28;20478;-74
2022/07/25 06:58:05;;;;;;;0.70;0.20;;;26.00;99.90;;;;;;5052616;28;20442;-74
2022/07/25 07:00:33;;;;;;;0.70;0.10;;;26.10;99.90;;;;;;5053121;28;20984;-74
2022/07/25 07:03:03;;;;;;;0.70;0.20;;;26.10;99.90;;;;;;5053321;28;20529;-74
2022/07/25 07:05:32;;;;;;;0.70;0.10;;;26.10;99.90;;;;;;5053164;28;20488;-74
2022/07/25 07:08:00;;;;;;;0.70;0.10;;;26.20;99.90;;;;;;5052756;28;20443;-75
2022/07/25 07:10:28;;;;;;;0.70;0.10;;;26.20;99.90;;;;;;5053534;28;20534;-75
2022/07/25 07:13:04;;;;;;;0.80;0.47;;;26.20;99.90;;;;;;5052921;28;20478;-74
2022/07/25 07:15:34;;;;;;;0.70;0.10;;;26.20;99.90;;;;;;5053016;28;20584;-74
2022/07/25 07:18:05;;;;;;;0.70;0.20;;;26.10;99.90;;;;;;5052725;28;20446;-74
2022/07/25 07:20:33;;;;;;;0.70;0.20;;;26.20;99.90;;;;;;5052576;28;20463;-74
2022/07/25 07:23:00;;;;;;;0.70;0.17;;;26.20;99.90;;;;;;5052603;28;20450;-74
2022/07/25 07:25:29;;;;;;;0.70;0.10;;;26.20;99.90;;;;;;5052771;28;20447;-74
2022/07/25 07:27:57;;;;;;;0.90;0.70;;;26.30;99.90;;;;;;5052524;28;20504;-76
2022/07/25 07:30:26;;;;;;;0.70;0.20;;;26.30;99.90;;;;;;5052592;28;20467;-74
2022/07/25 07:33:15;;;;;;;0.70;0.20;;;26.30;99.90;;;;;;5052013;28;20478;-74
2022/07/25 07:35:44;;;;;;;0.70;0.10;;;;;;;;;;5052037;28;20477;-73
2022/07/25 07:38:12;;;;;;;0.70;0.10;;;26.60;99.90;;;;;;5054101;28;20506;-75
2022/07/25 07:40:40;;;;;;;0.70;0.20;;;26.70;99.90;;;;;;5054038;28;20471;-74
2022/07/25 07:43:08;;;;;;;0.70;0.20;;;26.70;99.90;;;;;;5052490;28;21067;-75
2022/07/25 07:45:36;;;;;;;0.70;0.20;;;26.80;99.90;;;;;;5052885;28;20446;-74
2022/07/25 07:48:06;;;;;;;0.70;0.20;;;27.00;99.90;;;;;;5052196;28;20443;-74
2022/07/25 07:50:36;;;;;;;1.20;0.83;;;27.00;99.90;;;;;;5052223;28;21026;-75
2022/07/25 07:53:05;;;;;;;2.13;1.93;;;27.10;99.90;;;;;;5051966;28;20482;-74
2022/07/25 07:55:44;;;;;;;0.70;0.20;;;27.20;99.90;;;;;;5052045;28;20442;-74
2022/07/25 07:58:14;;;;;;;0.70;0.10;;;27.20;99.90;;;;;;5052628;28;20469;-74
2022/07/25 08:00:44;;;;;;;0.70;0.10;;;27.30;99.90;;;;;;5053174;28;20896;-73
2022/07/25 08:03:12;;;;;;;1.90;1.30;;;27.30;99.90;;;;;;5052727;28;20447;-75
2022/07/25 08:05:44;;;;;;;0.80;0.40;;;27.20;99.90;;;;;;5052363;28;20533;-74
2022/07/25 08:08:13;;;;;;;0.90;0.63;;;27.20;99.90;;;;;;5052173;28;20446;-74
2022/07/25 08:10:43;;;;;;;0.70;0.10;;;27.20;99.90;;;;;;5053142;28;20768;-73
2022/07/25 08:13:16;;;;;;;3.33;1.40;;;27.20;99.90;;;;;;5051762;28;20517;-74
2022/07/25 08:15:46;;;;;;;0.97;0.40;;;27.30;99.90;;;;;;5054718;28;20488;-74
2022/07/25 08:18:15;;;;;;;0.70;0.20;;;27.40;99.90;;;;;;5056221;28;20443;-74
2022/07/25 08:20:47;;;;;;;1.23;0.97;;;27.40;99.90;;;;;;5055358;28;20510;-73
2022/07/25 08:23:15;;;;;;;0.93;0.63;;;27.40;99.90;;;;;;5056240;28;20492;-74
2022/07/25 08:25:45;;;;;;;1.20;0.37;;;27.40;99.90;;;;;;5056211;28;20451;-74
2022/07/25 08:28:13;;;;;;;0.70;0.10;;;27.50;99.90;;;;;;5058504;28;20438;-74
2022/07/25 08:30:42;;;;;;;0.70;0.20;;;27.60;99.90;;;;;;5056973;28;20550;-75
2022/07/25 08:33:12;;;;;;;0.70;0.10;;;27.70;99.90;;;;;;5057253;28;20514;-75
2022/07/25 08:35:40;;;;;;;0.70;0.20;;;27.80;99.90;;;;;;5057311;28;20650;-74
2022/07/25 08:38:10;;;;;;;0.70;0.20;;;27.90;99.90;;;;;;5055457;28;20481;-74
2022/07/25 08:40:39;;;;;;;4.40;2.13;;;28.10;99.90;;;;;;5055072;28;20470;-75
2022/07/25 08:43:11;;;;;;;0.80;0.20;;;28.10;99.90;;;;;;5055750;28;20473;-74
2022/07/25 08:45:44;;;;;;;0.80;0.20;;;28.20;99.90;;;;;;5055595;28;20506;-74
2022/07/25 08:48:12;;;;;;;0.70;0.20;;;28.30;99.90;;;;;;5055232;28;20449;-75
2022/07/25 08:50:40;;;;;;;0.70;0.10;;;28.30;99.90;;;;;;5055642;28;20478;-75
2022/07/25 08:53:10;;;;;;;0.70;0.10;;;28.50;99.90;;;;;;5060482;28;20638;-74
2022/07/25 08:55:58;;;;;;;0.70;0.20;;;28.50;99.90;;;;;;5067648;28;20438;-74
2022/07/25 08:58:26;;;;;;;0.70;0.17;;;28.70;99.90;;;;;;5065105;28;20883;-74
2022/07/25 09:00:54;;;;;;;3.80;1.30;;;28.70;99.90;;;;;;5057115;28;20474;-74
2022/07/25 09:03:21;;;;;;;0.80;0.43;;;28.70;99.90;;;;;;5056901;28;20443;-73
2022/07/25 09:05:51;;;;;;;0.70;0.20;;;28.70;99.90;;;;;;5056292;28;20444;-74
2022/07/25 09:08:20;;;;;;;1.00;0.53;;;28.80;99.90;;;;;;5055794;28;20446;-75
2022/07/25 09:10:50;;;;;;;0.70;0.20;;;29.00;99.90;;;;;;5056157;28;20779;-74
2022/07/25 09:13:19;;;;;;;0.70;0.33;;;29.00;99.90;;;;;;5055074;28;20984;-74
2022/07/25 09:15:48;;;;;;;2.80;1.43;;;29.10;99.90;;;;;;5056069;28;20481;-74
2022/07/25 09:18:19;;;;;;;0.70;0.10;;;29.10;99.90;;;;;;5055256;28;20450;-75
2022/07/25 09:20:50;;;;;;;0.70;0.20;;;29.30;99.90;;;;;;5055043;28;20454;-74
2022/07/25 09:23:30;;;;;;;0.70;0.20;;;29.40;99.90;;;;;;5054589;28;20462;-75
2022/07/25 09:26:03;;;;;;;0.70;0.20;;;29.50;99.90;;;;;;5054794;28;20442;-75
2022/07/25 09:28:31;;;;;;;0.70;0.20;;;29.70;99.90;;;;;;5054535;28;20929;-74
2022/07/25 09:31:01;;;;;;;1.20;1.00;;;29.70;99.90;;;;;;5055457;28;20447;-74
2022/07/25 09:33:30;;;;;;;0.80;0.30;;;;;;;;;;5056358;28;20485;-74
2022/07/25 09:35:58;;;;;;;1.00;0.70;;;;;;;;;;5055860;28;20442;-74
2022/07/25 09:38:27;;;;;;;0.90;0.17;;;30.10;99.90;;;;;;5054108;28;20443;-74
2022/07/25 09:40:58;;;;;;;0.70;0.10;;;30.20;99.90;;;;;;5055292;28;20453;-74
2022/07/25 09:43:36;;;;;;;0.70;0.10;;;30.20;99.90;;;;;;5054798;28;20533;-73
2022/07/25 09:46:05;;;;;;;1.10;0.67;;;30.40;99.90;;;;;;5054313;28;20438;-74
2022/07/25 09:48:34;;;;;;;0.80;0.33;;;30.60;99.90;;;;;;5054404;28;20438;-73
2022/07/25 09:51:03;;;;;;;0.70;0.10;;;30.60;99.90;;;;;;5054214;28;20987;-74
2022/07/25 09:53:33;;;;;;;0.70;0.20;;;30.60;99.90;;;;;;5054467;28;20555;-74
2022/07/25 09:56:01;;;;;;;0.70;0.20;;;30.70;99.90;;;;;;5054672;28;20443;-75
2022/07/25 09:58:30;;;;;;;1.07;0.57;;;30.90;99.90;;;;;;5054403;28;20813;-75
2022/07/25 10:01:05;;;;;;;1.00;0.40;;;30.90;99.90;;;;;;5054437;28;20472;-74
2022/07/25 10:03:44;;;;;;;0.70;0.20;;;30.90;99.90;;;;;;5054303;28;20442;-74
2022/07/25 10:06:20;;;;;;;0.80;0.40;;;31.00;99.90;;;;;;5053980;28;20449;-74
2022/07/25 10:08:50;;;;;;;0.70;0.30;;;30.90;99.90;;;;;;5053870;28;20453;-74
2022/07/25 10:11:19;;;;;;;1.10;0.73;;;30.80;99.90;;;;;;5054064;28;20538;-76
2022/07/25 10:13:48;;;;;;;1.63;0.80;;;30.80;99.90;;;;;;5053907;28;20474;-75
2022/07/25 10:16:17;;;;;;;1.00;0.30;;;29.80;99.90;;;;;;5054147;28;20553;-75
2022/07/25 10:18:50;;;;;;;4.53;4.23;;;30.80;99.90;;;;;;5053881;28;20458;-74
2022/07/25 10:21:20;;;;;;;0.90;0.37;;;30.90;99.90;;;;;;5053651;28;20439;-74
2022/07/25 10:24:02;;;;;;;0.70;0.17;;;30.90;99.90;;;;;;5054036;28;20498;-74
2022/07/25 10:26:32;;;;;;;4.27;2.80;;;31.00;99.90;;;;;;5054129;28;20442;-74
2022/07/25 10:29:00;;;;;;;0.90;0.50;;;31.10;99.90;;;;;;5053671;28;20537;-74
2022/07/25 10:31:37;;;;;;;1.57;1.40;;;31.10;99.90;;;;;;5053466;28;20968;-75
2022/07/25 10:34:06;;;;;;;0.80;0.50;;;31.20;99.90;;;;;;5053642;28;20555;-75
2022/07/25 10:36:44;;;;;;;0.70;0.20;;;31.20;99.90;;;;;;5053779;28;20454;-74
2022/07/25 10:39:14;;;;;;;1.83;0.77;;;31.20;99.90;;;;;;5053588;28;20455;-74
2022/07/25 10:41:44;;;;;;;0.90;0.50;;;31.30;99.90;;;;;;5053821;28;20434;-75
2022/07/25 10:44:13;;;;;;;0.70;0.17;;;31.30;99.90;;;;;;5053233;28;20453;-75
2022/07/25 10:46:43;;;;;;;0.90;0.50;;;31.40;99.90;;;;;;5053927;28;20430;-77
2022/07/25 10:49:18;;;;;;;0.70;0.20;;;31.60;99.90;;;;;;5053401;28;20466;-74
2022/07/25 10:51:55;;;;;;;0.93;0.83;;;31.70;99.90;;;;;;5053981;28;20457;-74
2022/07/25 10:54:25;;;;;;;1.83;1.73;;;31.80;99.90;;;;;;5053708;28;20482;-74
2022/07/25 10:56:55;;;;;;;0.70;0.20;;;32.00;99.90;;;;;;5054026;28;20554;-74
2022/07/25 10:59:32;;;;;;;0.70;0.20;;;32.10;99.90;;;;;;5053206;28;20474;-76
2022/07/25 11:02:01;;;;;;;1.67;0.87;;;32.20;99.90;;;;;;5053522;28;20446;-74
2022/07/25 11:04:30;;;;;;;1.40;0.43;;;32.20;99.90;;;;;;5053241;28;20498;-75
2022/07/25 11:07:07;;;;;;;2.10;1.63;;;32.20;99.90;;;;;;5053030;28;20445;-74
2022/07/25 11:09:37;;;;;;;2.97;1.33;;;32.20;99.90;;;;;;5053113;28;20465;-74
2022/07/25 11:12:08;;;;;;;0.70;0.20;;;32.20;99.90;;;;;;5053066;28;20442;-75
2022/07/25 11:14:39;;;;;;;1.17;0.77;;;32.20;99.90;;;;;;5045017;28;20999;-75
2022/07/25 11:17:14;;;;;;;3.43;2.93;;;32.40;99.90;;;;;;5053615;28;20955;-73
2022/07/25 11:19:43;;;;;;;1.63;1.30;;;32.50;99.90;;;;;;5053957;28;20466;-74
2022/07/25 11:22:12;;;;;;;1.67;1.30;;;31.80;99.90;;;;;;5053717;28;20446;-74
2022/07/25 11:24:42;;;;;;;4.30;2.30;;;32.70;99.90;;;;;;5052931;28;20438;-74
2022/07/25 11:27:14;;;;;;;1.00;0.80;;;32.60;99.90;;;;;;5053247;28;20462;-74
2022/07/25 11:29:42;;;;;;;2.33;2.13;;;32.70;99.90;;;;;;5052689;28;20522;-74
2022/07/25 11:32:11;;;;;;;0.70;0.20;;;32.70;99.90;;;;;;5052898;28;20457;-74
2022/07/25 11:34:42;;;;;;;3.73;2.53;;;32.60;99.90;;;;;;5052914;28;20568;-75
2022/07/25 11:37:12;;;;;;;0.70;0.20;;;32.60;99.90;;;;;;5052723;28;20451;-74
2022/07/25 11:39:44;;;;;;;0.70;0.20;;;32.60;99.90;;;;;;5052894;28;20462;-75
2022/07/25 11:42:15;;;;;;;0.90;0.53;;;32.60;99.90;;;;;;5052861;28;20442;-74
2022/07/25 11:44:45;;;;;;;1.73;1.37;;;32.70;99.90;;;;;;5052658;28;20439;-75
2022/07/25 11:47:28;;;;;;;2.10;1.80;;;32.70;99.90;;;;;;5052822;28;20438;-74
2022/07/25 11:49:58;;;;;;;1.07;0.53;;;32.70;99.90;;;;;;5053100;28;20506;-75
2022/07/25 11:52:28;;;;;;;1.53;1.13;;;32.70;99.90;;;;;;5052520;28;20499;-76
2022/07/25 11:55:00;;;;;;;4.30;1.07;;;32.80;99.90;;;;;;5052817;28;20489;-75
2022/07/25 11:57:30;;;;;;;0.80;0.40;;;32.80;99.90;;;;;;5052696;28;20530;-74
2022/07/25 11:59:59;;;;;;;1.23;0.60;;;32.90;99.90;;;;;;5059026;28;20472;-73
2022/07/25 12:02:30;;;;;;;0.70;0.20;;;32.70;99.90;;;;;;5065918;28;20435;-74
2022/07/25 12:05:00;;;;;;;0.70;0.10;;;32.70;99.90;;;;;;5061540;28;20443;-75
2022/07/25 12:07:50;;;;;;;0.70;0.20;;;32.70;99.90;;;;;;5056303;28;20447;-75
2022/07/25 12:10:23;;;;;;;1.23;0.33;;;32.60;99.90;;;;;;5049012;28;20896;-75
2022/07/25 12:12:52;;;;;;;0.70;0.13;;;32.70;99.90;;;;;;5052433;28;20446;-73
2022/07/25 12:15:23;;;;;;;0.97;0.50;;;32.70;99.90;;;;;;5053171;28;20517;-75
2022/07/25 12:17:52;;;;;;;2.40;1.60;;;32.70;99.90;;;;;;5052482;28;20447;-75
2022/07/25 12:20:22;;;;;;;0.77;0.33;;;32.60;99.90;;;;;;5053447;28;20611;-76
2022/07/25 12:22:52;;;;;;;10.13;9.60;;;32.70;99.90;;;;;;5053364;28;20953;-75
2022/07/25 12:25:21;;;;;;;1.00;0.40;;;32.90;99.90;;;;;;5052627;28;20534;-74
2022/07/25 12:27:57;;;;;;;2.50;2.30;;;32.90;99.90;;;;;;5052123;28;20442;-73
2022/07/25 12:30:26;;;;;;;0.80;0.43;;;33.00;99.90;;;;;;5052647;28;20485;-75
2022/07/25 12:32:55;;;;;;;0.80;0.40;;;33.10;99.90;;;;;;5052131;28;20442;-75
2022/07/25 12:35:23;;;;;;;1.20;0.87;;;33.20;99.90;;;;;;5051915;28;20480;-77
2022/07/25 12:37:51;;;;;;;3.20;0.73;;;33.30;99.90;;;;;;5052265;28;20442;-75
2022/07/25 12:40:21;;;;;;;1.50;1.23;;;33.40;99.90;;;;;;5052057;28;20489;-74
2022/07/25 12:42:49;;;;;;;2.83;1.90;;;33.40;99.90;;;;;;5053015;28;20528;-75
2022/07/25 12:45:18;;;;;;;1.37;1.13;;;33.30;99.90;;;;;;5052508;28;20438;-75
2022/07/25 12:47:47;;;;;;;0.70;0.20;;;33.30;99.90;;;;;;5051935;28;20455;-74
2022/07/25 12:50:16;;;;;;;1.43;0.77;;;33.30;99.90;;;;;;5052280;28;21001;-74
2022/07/25 12:52:45;;;;;;;0.90;0.63;;;33.30;99.90;;;;;;5052902;28;20512;-75
2022/07/25 12:55:15;;;;;;;1.40;1.30;;;33.40;99.90;;;;;;5052114;28;20474;-74
2022/07/25 12:57:45;;;;;;;1.63;1.17;;;33.40;99.90;;;;;;5051482;28;20565;-74
2022/07/25 13:00:16;;;;;;;1.03;0.60;;;33.20;99.90;;;;;;5051758;28;20493;-74